Time;durP1;ratioP1;P1;durP2;ratioP2;P2;SDS_P1;SDS_P2;PMS_P1;PMS_P2;Temp;Humidity;BMP_temperature;BMP_pressure;BME280_temperature;BME280_humidity;BME280_pressure;Samples;Min_cycle;Max_cycle;Signal;HPM_P1;HPM_P2
2021/08/28 00:00:30;;;;;;;9.13;4.63;;;;;;;23.80;48.32;102595.94;5085963;28;20035;-76
2021/08/28 00:02:55;;;;;;;7.30;4.38;;;;;;;23.81;48.18;102594.09;5107481;28;20031;-76
2021/08/28 00:05:21;;;;;;;7.53;4.75;;;;;;;23.80;48.13;102595.94;5094351;28;20059;-77
2021/08/28 00:07:46;;;;;;;6.82;4.70;;;;;;;23.80;48.40;102593.28;5101327;28;20391;-76
2021/08/28 00:10:12;;;;;;;8.20;4.30;;;;;;;23.80;48.10;102595.13;5099941;28;20074;-77
2021/08/28 00:12:37;;;;;;;7.03;4.60;;;;;;;23.80;48.43;102604.00;5090613;28;20546;-76
2021/08/28 00:15:06;;;;;;;8.60;4.50;;;;;;;23.79;48.35;102596.97;5097500;28;20084;-77
2021/08/28 00:17:35;;;;;;;6.78;4.63;;;;;;;23.80;48.42;102597.78;5103649;28;20065;-75
2021/08/28 00:20:05;;;;;;;6.15;4.60;;;;;;;23.78;48.13;102595.31;5085536;28;20375;-76
2021/08/28 00:22:31;;;;;;;6.53;4.53;;;;;;;23.78;48.19;102599.84;5106640;28;20059;-76
2021/08/28 00:24:56;;;;;;;7.60;4.03;;;;;;;23.77;48.26;102604.34;5094901;28;20059;-77
2021/08/28 00:27:22;;;;;;;7.35;4.18;;;;;;;23.77;48.57;102600.84;5110209;28;20421;-77
2021/08/28 00:29:49;;;;;;;9.15;4.40;;;;;;;23.78;48.74;102603.34;5107328;28;20044;-77
2021/08/28 00:32:15;;;;;;;7.32;4.40;;;;;;;23.76;48.46;102602.69;5089664;28;20040;-77
2021/08/28 00:34:40;;;;;;;6.88;4.43;;;;;;;23.77;48.45;102604.34;5088602;28;20816;-77
2021/08/28 00:37:06;;;;;;;7.10;4.53;;;;;;;23.77;48.49;102608.88;5064354;28;20503;-76
2021/08/28 00:39:31;;;;;;;6.75;4.03;;;;;;;23.77;48.58;102615.06;5050761;28;20484;-75
2021/08/28 00:41:58;;;;;;;6.80;4.45;;;;;;;23.78;48.09;102611.38;5087957;28;20089;-76
2021/08/28 00:44:23;;;;;;;6.90;3.80;;;;;;;23.78;48.48;102611.38;5106229;28;20406;-77
2021/08/28 00:46:50;;;;;;;5.40;4.20;;;;;;;23.79;48.69;102612.22;5092681;28;20034;-77
2021/08/28 00:49:15;;;;;;;7.30;4.28;;;;;;;23.77;48.78;102604.34;5105370;28;20527;-76
2021/08/28 00:51:41;;;;;;;8.32;4.35;;;;;;;23.77;48.43;102611.56;5106180;28;20081;-76
2021/08/28 00:54:07;;;;;;;6.05;3.92;;;;;;;23.75;48.55;102611.75;5100265;28;20031;-76
2021/08/28 00:56:34;;;;;;;6.47;4.32;;;;;;;23.76;48.95;102609.91;5097858;28;20035;-77
2021/08/28 00:58:59;;;;;;;5.93;3.97;;;;;;;23.76;48.93;102609.91;5089625;28;20529;-77
2021/08/28 01:01:32;;;;;;;6.05;3.90;;;;;;;23.75;48.74;102617.13;5095668;28;20035;-77
2021/08/28 01:04:02;;;;;;;5.70;3.90;;;;;;;23.76;49.02;102617.94;5090767;28;20038;-77
2021/08/28 01:06:40;;;;;;;6.78;4.10;;;;;;;23.76;48.84;102621.44;5095983;28;20062;-77
2021/08/28 01:09:14;;;;;;;7.28;4.25;;;;;;;23.76;48.98;102623.31;5103260;28;20031;-77
2021/08/28 01:11:51;;;;;;;7.15;4.00;;;;;;;23.74;48.79;102619.97;5105866;28;20055;-76
2021/08/28 01:14:23;;;;;;;8.27;4.18;;;;;;;23.76;49.10;102625.97;5082944;28;20032;-76
2021/08/28 01:16:54;;;;;;;7.55;4.47;;;;;;;23.77;48.93;102622.28;5088790;28;20028;-76
2021/08/28 01:19:32;;;;;;;8.10;4.30;;;;;;;23.74;49.15;102625.34;5089047;28;20065;-77
2021/08/28 01:22:00;;;;;;;7.72;4.53;;;;;;;23.74;48.80;102623.47;5098522;28;20031;-76
2021/08/28 01:24:26;;;;;;;7.32;3.95;;;;;;;23.73;49.29;102621.00;5079721;28;20058;-76
2021/08/28 01:27:00;;;;;;;6.88;4.13;;;;;;;23.69;49.07;102628.56;5089062;28;20028;-77
2021/08/28 01:29:33;;;;;;;8.02;4.20;;;;;;;23.65;49.18;102619.19;5088339;28;20020;-75
2021/08/28 01:32:00;;;;;;;6.15;4.15;;;;;;;23.66;49.27;102628.06;5075315;28;20085;-77
2021/08/28 01:34:27;;;;;;;7.15;3.53;;;;;;;23.65;49.17;102624.56;5089017;28;20077;-74
2021/08/28 01:36:55;;;;;;;7.78;4.57;;;;;;;23.66;49.39;102626.22;5088740;28;20115;-76
2021/08/28 01:39:21;;;;;;;7.57;3.80;;;;;;;23.65;49.01;102621.88;5090137;28;20063;-77
2021/08/28 01:41:50;;;;;;;6.90;4.07;;;;;;;23.67;49.12;102625.22;5087825;28;20456;-77
2021/08/28 01:44:17;;;;;;;9.07;4.00;;;;;;;23.68;49.25;102624.22;5070563;28;20036;-77
2021/08/28 01:46:43;;;;;;;6.45;3.72;;;;;;;23.68;49.45;102621.53;5099364;28;20518;-77
2021/08/28 01:49:09;;;;;;;6.35;4.15;;;;;;;23.70;49.08;102630.22;5101774;28;20056;-77
2021/08/28 01:51:38;;;;;;;7.10;3.97;;;;;;;23.71;49.34;102620.34;5103561;28;20038;-77
2021/08/28 01:54:04;;;;;;;6.97;4.25;;;;;;;23.71;48.88;102625.69;5095207;28;20026;-76
2021/08/28 01:56:31;;;;;;;6.32;4.00;;;;;;;23.72;49.22;102620.16;5100801;28;20032;-76
2021/08/28 01:58:59;;;;;;;7.20;4.10;;;;;;;23.72;49.26;102620.16;5092003;28;20042;-76
2021/08/28 02:01:24;;;;;;;8.45;4.10;;;;;;;23.74;49.01;102625.34;5099942;28;20028;-76
2021/08/28 02:03:50;;;;;;;6.50;4.00;;;;;;;23.73;49.58;102624.50;5077330;28;20039;-76
2021/08/28 02:06:32;;;;;;;7.20;3.97;;;;;;;23.72;49.33;102627.38;5092216;28;20120;-77
2021/08/28 02:09:04;;;;;;;7.38;4.15;;;;;;;23.74;49.33;102626.16;5092434;28;20040;-76
2021/08/28 02:12:02;;;;;;;6.80;3.67;;;;;;;23.72;49.15;102628.19;5073827;28;20020;-76
2021/08/28 02:14:41;;;;;;;5.78;3.60;;;;;;;23.72;49.24;102628.19;5094000;28;20047;-76
2021/08/28 02:17:08;;;;;;;6.90;4.32;;;;;;;23.75;49.26;102629.69;5098691;28;20024;-76
2021/08/28 02:19:37;;;;;;;7.35;4.00;;;;;;;23.76;49.20;102636.69;5094081;28;20039;-76
2021/08/28 02:22:13;;;;;;;8.77;4.55;;;;;;;23.75;49.32;102627.00;5091549;28;20036;-77
2021/08/28 02:24:41;;;;;;;6.30;3.80;;;;;;;23.76;49.16;102631.34;5095526;28;20424;-77
2021/08/28 02:27:18;;;;;;;8.25;4.50;;;;;;;23.76;48.91;102631.34;5092323;28;20495;-77
2021/08/28 02:29:52;;;;;;;7.43;4.20;;;;;;;23.75;49.01;102629.69;5107049;28;20119;-77
2021/08/28 02:32:20;;;;;;;7.22;4.25;;;;;;;23.75;48.94;102627.81;5104140;28;20472;-77
2021/08/28 02:34:47;;;;;;;7.65;4.68;;;;;;;23.76;49.03;102620.63;5090591;28;20494;-77
2021/08/28 02:37:15;;;;;;;5.80;3.80;;;;;;;23.76;49.31;102620.63;5099378;28;20101;-77
2021/08/28 02:39:43;;;;;;;6.65;3.70;;;;;;;23.76;48.93;102620.63;5100835;28;20024;-77
2021/08/28 02:42:11;;;;;;;6.85;3.92;;;;;;;23.76;48.97;102618.78;5094154;28;20028;-77
2021/08/28 02:44:39;;;;;;;6.93;3.90;;;;;;;23.76;48.99;102615.25;5099774;28;20039;-77
2021/08/28 02:47:06;;;;;;;7.85;4.38;;;;;;;23.76;49.02;102617.94;5091249;28;20469;-76
2021/08/28 02:49:33;;;;;;;6.65;4.40;;;;;;;23.76;49.05;102618.78;5099347;28;20042;-77
2021/08/28 02:52:00;;;;;;;7.72;4.30;;;;;;;23.76;49.08;102624.13;5094162;28;20063;-77
2021/08/28 02:54:27;;;;;;;7.65;4.70;;;;;;;23.76;48.66;102628.66;5108717;28;20027;-77
2021/08/28 02:56:55;;;;;;;6.40;4.13;;;;;;;23.77;48.94;102630.31;5095775;28;20044;-76
2021/08/28 02:59:24;;;;;;;7.03;4.30;;;;;;;23.76;48.84;102631.34;5073456;28;20023;-77
2021/08/28 03:01:50;;;;;;;6.25;3.97;;;;;;;23.76;48.73;102624.13;5110318;28;20081;-77
2021/08/28 03:04:22;;;;;;;7.15;3.85;;;;;;;23.74;48.86;102622.66;5105322;28;20031;-77
2021/08/28 03:06:48;;;;;;;7.32;4.03;;;;;;;23.75;48.89;102625.16;5099777;28;20027;-77
2021/08/28 03:09:16;;;;;;;6.95;4.35;;;;;;;23.75;48.65;102629.69;5104030;28;20043;-77
2021/08/28 03:11:43;;;;;;;5.90;3.90;;;;;;;23.75;48.89;102633.19;5086855;28;20028;-77
2021/08/28 03:14:09;;;;;;;6.57;4.15;;;;;;;23.74;48.87;102625.34;5096849;28;20024;-77
2021/08/28 03:16:39;;;;;;;7.43;4.00;;;;;;;23.73;48.63;102629.84;5111611;28;20463;-77
2021/08/28 03:19:07;;;;;;;6.07;3.78;;;;;;;23.74;49.11;102630.69;5091592;28;20491;-77
2021/08/28 03:21:33;;;;;;;6.07;4.03;;;;;;;23.74;48.73;102633.38;5101939;28;20027;-77
2021/08/28 03:24:01;;;;;;;7.10;3.90;;;;;;;23.72;48.63;102625.50;5107799;28;20084;-77
2021/08/28 03:26:29;;;;;;;6.38;4.00;;;;;;;23.73;48.83;102632.53;5099875;28;20042;-76
2021/08/28 03:28:57;;;;;;;5.72;3.80;;;;;;;23.73;49.01;102629.03;5095974;28;20036;-77
2021/08/28 03:31:26;;;;;;;5.53;3.97;;;;;;;23.74;48.87;102630.69;5103883;28;20225;-77
2021/08/28 03:33:57;;;;;;;8.57;3.65;;;;;;;23.72;49.00;102632.72;5104211;28;20024;-77
2021/08/28 03:36:24;;;;;;;8.38;4.10;;;;;;;23.72;48.86;102633.56;5076978;28;20164;-77
2021/08/28 03:38:49;;;;;;;6.13;3.53;;;;;;;23.73;48.86;102634.38;5103143;28;20052;-77
2021/08/28 03:41:16;;;;;;;6.95;4.32;;;;;;;23.73;49.00;102631.72;5087512;28;20054;-77
2021/08/28 03:43:43;;;;;;;6.88;4.05;;;;;;;23.72;48.85;102625.50;5083732;28;20036;-77
2021/08/28 03:46:09;;;;;;;5.80;3.90;;;;;;;23.73;48.75;102634.38;5086999;28;20048;-77
2021/08/28 03:48:37;;;;;;;6.65;3.80;;;;;;;23.72;48.43;102622.84;5090025;28;20119;-77
2021/08/28 03:51:04;;;;;;;5.70;4.07;;;;;;;23.73;48.73;102639.75;5082799;28;20032;-77
2021/08/28 03:53:30;;;;;;;7.63;4.18;;;;;;;23.71;49.08;102631.88;5084519;28;20111;-77
2021/08/28 03:55:56;;;;;;;7.35;4.05;;;;;;;23.70;48.95;102632.91;5091785;28;20054;-77
2021/08/28 03:58:23;;;;;;;6.00;4.00;;;;;;;23.70;48.91;102627.56;5090300;28;20032;-77
2021/08/28 04:00:48;;;;;;;5.25;3.63;;;;;;;23.69;48.71;102628.56;5083454;28;20036;-77
2021/08/28 04:03:14;;;;;;;5.28;3.80;;;;;;;23.67;48.78;102635.94;5071408;28;20045;-77
2021/08/28 04:05:39;;;;;;;5.95;3.75;;;;;;;23.66;48.93;102628.91;5083419;28;20032;-76
2021/08/28 04:08:05;;;;;;;5.45;4.10;;;;;;;23.65;49.05;102632.59;5104152;28;20058;-77
2021/08/28 04:10:30;;;;;;;6.57;3.67;;;;;;;23.64;48.76;102635.44;5063202;28;20106;-77
2021/08/28 04:12:56;;;;;;;5.85;3.75;;;;;;;23.63;48.93;102639.97;5091207;28;20028;-76
2021/08/28 04:15:21;;;;;;;6.07;3.58;;;;;;;23.63;48.77;102637.31;5079987;28;20052;-77
2021/08/28 04:17:47;;;;;;;6.90;3.90;;;;;;;23.64;48.92;102638.97;5083865;28;20043;-76
2021/08/28 04:20:12;;;;;;;6.03;4.10;;;;;;;23.62;48.67;102632.13;5092485;28;20309;-77
2021/08/28 04:22:38;;;;;;;6.45;3.90;;;;;;;23.60;48.81;102630.47;5089840;28;20498;-77
2021/08/28 04:25:04;;;;;;;5.93;3.90;;;;;;;23.59;48.81;102634.16;5093577;28;20082;-77
2021/08/28 04:27:29;;;;;;;6.50;3.80;;;;;;;23.58;49.04;102627.13;5098761;28;20122;-77
2021/08/28 04:29:55;;;;;;;7.00;3.92;;;;;;;23.57;48.89;102632.66;5091620;28;20383;-77
2021/08/28 04:32:20;;;;;;;6.28;3.95;;;;;;;23.55;49.10;102632.00;5093649;28;20110;-77
2021/08/28 04:34:46;;;;;;;6.95;3.65;;;;;;;23.54;49.10;102633.84;5085881;28;20028;-77
2021/08/28 04:37:11;;;;;;;6.07;3.88;;;;;;;23.55;49.05;102632.00;5092278;28;20086;-77
2021/08/28 04:39:38;;;;;;;5.85;3.58;;;;;;;23.55;49.11;102632.81;5081519;28;20034;-75
2021/08/28 04:42:04;;;;;;;5.88;3.72;;;;;;;23.55;49.46;102629.31;5093424;28;20384;-77
2021/08/28 04:44:29;;;;;;;6.60;3.50;;;;;;;23.54;49.24;102630.31;5083067;28;20028;-77
2021/08/28 04:46:54;;;;;;;8.73;3.95;;;;;;;23.52;49.30;102625.16;5093653;28;20027;-76
2021/08/28 04:49:20;;;;;;;5.93;3.75;;;;;;;23.51;49.13;102620.81;5083103;28;20054;-77
2021/08/28 04:51:45;;;;;;;5.15;3.40;;;;;;;23.52;49.30;102632.34;5076363;28;20042;-77
2021/08/28 04:54:11;;;;;;;4.65;3.33;;;;;;;23.52;49.49;102624.31;5091880;28;20031;-77
2021/08/28 04:56:36;;;;;;;4.97;3.47;;;;;;;23.53;49.40;102623.31;5082409;28;20074;-77
2021/08/28 04:59:01;;;;;;;5.65;3.75;;;;;;;23.53;49.35;102634.84;5091225;28;20055;-76
2021/08/28 05:01:27;;;;;;;5.70;3.53;;;;;;;23.55;49.54;102634.66;5083408;28;20458;-77
2021/08/28 05:03:52;;;;;;;5.47;3.60;;;;;;;23.56;49.35;102633.66;5083573;28;20036;-77
2021/08/28 05:06:18;;;;;;;6.47;3.72;;;;;;;23.57;49.22;102632.66;5093401;28;20040;-77
2021/08/28 05:08:43;;;;;;;5.55;3.45;;;;;;;23.57;49.15;102635.34;5102707;28;20040;-77
2021/08/28 05:11:09;;;;;;;9.15;3.90;;;;;;;23.58;49.25;102634.34;5070909;28;20036;-76
2021/08/28 05:13:34;;;;;;;6.13;3.67;;;;;;;23.59;49.17;102638.69;5088496;28;20055;-77
2021/08/28 05:16:00;;;;;;;5.10;3.33;;;;;;;23.59;49.27;102636.00;5088490;28;20039;-76
2021/08/28 05:18:25;;;;;;;5.93;3.97;;;;;;;23.57;49.12;102638.84;5088698;28;20032;-77
2021/08/28 05:20:51;;;;;;;6.68;3.80;;;;;;;23.55;49.43;102637.34;5095874;28;20459;-76
2021/08/28 05:23:16;;;;;;;6.47;3.40;;;;;;;23.51;49.49;102639.56;5109014;28;20477;-77
2021/08/28 05:25:42;;;;;;;5.40;3.22;;;;;;;23.49;49.61;102638.03;5075632;28;20034;-77
2021/08/28 05:28:07;;;;;;;6.63;3.80;;;;;;;23.46;49.57;102644.59;5109338;28;20035;-77
2021/08/28 05:30:33;;;;;;;5.28;3.40;;;;;;;23.43;49.46;102646.81;5090900;28;20374;-76
2021/08/28 05:32:58;;;;;;;5.68;3.70;;;;;;;23.39;49.34;102648.19;5081451;28;20491;-77
2021/08/28 05:35:24;;;;;;;6.82;3.53;;;;;;;23.35;49.36;102649.53;5102435;28;20102;-77
2021/08/28 05:37:49;;;;;;;6.43;3.60;;;;;;;23.31;49.67;102652.56;5088765;28;20052;-77
2021/08/28 05:40:19;;;;;;;5.22;3.35;;;;;;;23.30;49.48;102656.25;5101881;28;20031;-76
2021/08/28 05:42:44;;;;;;;4.45;3.50;;;;;;;23.31;49.56;102657.91;5088409;28;20052;-77
2021/08/28 05:45:10;;;;;;;6.18;3.63;;;;;;;23.34;49.33;102661.25;5088595;28;20085;-77
2021/08/28 05:47:36;;;;;;;5.68;3.50;;;;;;;23.35;49.77;102662.91;5102741;28;20467;-77
2021/08/28 05:50:03;;;;;;;7.80;3.95;;;;;;;23.36;49.55;102665.44;5069856;28;20039;-77
2021/08/28 05:52:28;;;;;;;6.57;3.42;;;;;;;23.37;49.87;102663.59;5090377;28;20047;-77
2021/08/28 05:54:54;;;;;;;5.15;3.22;;;;;;;23.37;49.32;102669.78;5108435;28;20036;-77
2021/08/28 05:57:19;;;;;;;5.93;3.53;;;;;;;23.36;49.51;102665.44;5095285;28;20028;-77
2021/08/28 05:59:44;;;;;;;4.93;3.25;;;;;;;23.37;49.47;102661.75;5102551;28;20070;-77
2021/08/28 06:02:11;;;;;;;5.70;3.17;;;;;;;23.38;49.88;102670.63;5084602;28;20024;-77
2021/08/28 06:04:37;;;;;;;5.40;3.10;;;;;;;23.38;49.90;102666.09;5083313;28;20036;-77
2021/08/28 06:07:03;;;;;;;6.18;3.33;;;;;;;23.39;49.80;102666.94;5076084;28;20052;-76
2021/08/28 06:09:28;;;;;;;4.95;3.25;;;;;;;23.40;49.63;102668.59;5058676;28;20033;-77
2021/08/28 06:11:55;;;;;;;5.55;3.42;;;;;;;23.39;49.86;102673.13;5054195;28;20102;-76
2021/08/28 06:14:20;;;;;;;5.65;3.17;;;;;;;23.41;49.86;102670.25;5088455;28;20040;-77
2021/08/28 06:16:46;;;;;;;6.72;3.38;;;;;;;23.42;49.77;102675.44;5104491;28;20035;-77
2021/08/28 06:19:12;;;;;;;4.35;3.00;;;;;;;23.44;49.92;102670.72;5100749;28;20063;-78
2021/08/28 06:21:37;;;;;;;6.68;3.30;;;;;;;23.45;49.88;102674.25;5070452;28;20147;-77
2021/08/28 06:24:03;;;;;;;5.25;3.50;;;;;;;23.46;49.80;102675.91;5102155;28;20451;-77
2021/08/28 06:26:28;;;;;;;5.32;3.05;;;;;;;23.44;49.68;102675.25;5099982;28;20050;-77
2021/08/28 06:28:54;;;;;;;5.80;3.28;;;;;;;23.46;49.76;102678.59;5089931;28;20491;-76
2021/08/28 06:31:20;;;;;;;6.13;2.97;;;;;;;23.46;49.85;102681.25;5109117;28;20040;-77
2021/08/28 06:33:45;;;;;;;5.15;2.90;;;;;;;23.47;49.80;102683.75;5093068;28;20044;-76
2021/08/28 06:36:10;;;;;;;3.97;3.00;;;;;;;23.47;49.90;102683.75;5111046;28;20051;-77
2021/08/28 06:38:36;;;;;;;5.70;3.42;;;;;;;23.48;49.95;102685.44;5112104;28;20043;-76
2021/08/28 06:41:02;;;;;;;6.53;3.58;;;;;;;23.49;49.84;102689.78;5111399;28;20027;-77
2021/08/28 06:43:28;;;;;;;4.25;3.08;;;;;;;23.50;49.97;102686.06;5112566;28;20031;-77
2021/08/28 06:45:54;;;;;;;5.70;2.95;;;;;;;23.50;49.85;102687.94;5097072;28;20063;-77
2021/08/28 06:48:21;;;;;;;4.70;2.92;;;;;;;23.52;49.94;102688.59;5102026;28;20672;-77
2021/08/28 06:50:47;;;;;;;5.40;3.45;;;;;;;23.52;49.92;102691.28;5107156;28;20039;-76
2021/08/28 06:53:13;;;;;;;5.32;3.10;;;;;;;23.53;49.90;102690.28;5112397;28;20451;-77
2021/08/28 06:55:38;;;;;;;4.82;3.13;;;;;;;23.53;49.65;102693.78;5093295;28;20138;-77
2021/08/28 06:58:04;;;;;;;5.07;3.25;;;;;;;23.54;49.96;102689.25;5096997;28;20027;-77
2021/08/28 07:00:29;;;;;;;6.25;3.53;;;;;;;23.55;49.64;102693.59;5099155;28;20035;-77
2021/08/28 07:02:55;;;;;;;4.95;3.35;;;;;;;23.55;49.89;102697.13;5073486;28;20456;-76
2021/08/28 07:05:20;;;;;;;6.55;3.42;;;;;;;23.53;50.03;102688.44;5088778;28;20055;-77
2021/08/28 07:07:45;;;;;;;6.80;3.60;;;;;;;23.54;49.72;102694.63;5089051;28;20054;-78
2021/08/28 07:10:12;;;;;;;5.47;3.25;;;;;;;23.51;49.91;102690.47;5078244;28;20439;-77
2021/08/28 07:12:37;;;;;;;5.63;3.10;;;;;;;23.51;50.08;102689.59;5093811;28;20040;-77
2021/08/28 07:15:04;;;;;;;6.28;3.88;;;;;;;23.50;49.96;102694.13;5096747;28;20039;-77
2021/08/28 07:17:29;;;;;;;5.63;3.17;;;;;;;23.49;49.80;102692.44;5093289;28;20378;-77
2021/08/28 07:19:55;;;;;;;6.07;3.08;;;;;;;23.48;50.00;102689.94;5110855;28;20039;-76
2021/08/28 07:22:20;;;;;;;4.97;3.40;;;;;;;23.48;49.66;102685.44;5091180;28;20480;-77
2021/08/28 07:24:45;;;;;;;6.53;3.28;;;;;;;23.47;50.08;102686.44;5102442;28;20501;-77
2021/08/28 07:27:11;;;;;;;5.68;3.10;;;;;;;23.48;49.76;102693.47;5093127;28;20089;-77
2021/08/28 07:29:36;;;;;;;5.32;3.53;;;;;;;23.46;49.74;102691.97;5100567;28;20119;-76
2021/08/28 07:32:02;;;;;;;6.90;3.33;;;;;;;23.45;49.89;102690.31;5109542;28;20034;-77
2021/08/28 07:34:28;;;;;;;7.25;3.72;;;;;;;23.44;49.94;102694.00;5098047;28;20031;-77
2021/08/28 07:36:53;;;;;;;5.13;3.38;;;;;;;23.42;49.73;102694.19;5096901;28;20032;-77
2021/08/28 07:39:18;;;;;;;6.05;3.45;;;;;;;23.41;49.74;102695.19;5095498;28;20107;-76
2021/08/28 07:41:44;;;;;;;6.07;3.45;;;;;;;23.41;49.78;102699.72;5099209;28;20127;-72
2021/08/28 07:44:09;;;;;;;6.10;3.60;;;;;;;23.41;49.80;102702.41;5093266;28;20055;-77
2021/08/28 07:46:35;;;;;;;4.10;3.17;;;;;;;23.41;49.77;102707.75;5111112;28;20036;-77
2021/08/28 07:49:00;;;;;;;4.55;2.95;;;;;;;23.41;49.89;102700.56;5108913;28;20032;-77
2021/08/28 07:51:26;;;;;;;4.60;3.00;;;;;;;23.42;49.88;102701.38;5090606;28;20081;-77
2021/08/28 07:53:51;;;;;;;4.85;3.40;;;;;;;23.42;49.91;102701.38;5090013;28;20028;-76
2021/08/28 07:56:17;;;;;;;6.85;3.53;;;;;;;23.42;49.98;102701.38;5109083;28;20023;-76
2021/08/28 07:58:43;;;;;;;9.60;3.70;;;;;;;23.41;49.82;102700.56;5081371;28;20036;-76
2021/08/28 08:01:11;;;;;;;4.85;2.92;;;;;;;23.42;49.67;102706.75;5096445;28;20039;-76
2021/08/28 08:03:37;;;;;;;6.07;3.53;;;;;;;23.40;49.82;102704.25;5082968;28;20043;-77
2021/08/28 08:06:02;;;;;;;5.57;3.13;;;;;;;23.41;49.61;102710.44;5088774;28;20040;-76
2021/08/28 08:08:28;;;;;;;4.97;3.38;;;;;;;23.41;49.75;102699.72;5104266;28;20043;-77
2021/08/28 08:10:53;;;;;;;5.15;3.30;;;;;;;23.42;49.99;102702.22;5099173;28;20039;-77
2021/08/28 08:13:19;;;;;;;5.85;3.30;;;;;;;23.43;50.11;102705.72;5076060;28;20040;-76
2021/08/28 08:15:44;;;;;;;7.63;3.15;;;;;;;23.42;49.96;102704.91;5089639;28;20170;-75
2021/08/28 08:18:09;;;;;;;6.22;3.40;;;;;;;23.43;49.55;102703.88;5090908;28;20067;-77
2021/08/28 08:20:35;;;;;;;7.57;3.00;;;;;;;23.45;49.88;102706.38;5094577;28;20023;-77
2021/08/28 08:23:03;;;;;;;5.93;3.42;;;;;;;23.44;49.91;102710.06;5080503;28;20144;-77
2021/08/28 08:25:28;;;;;;;5.95;3.20;;;;;;;23.45;49.65;102706.38;5092045;28;20399;-76
2021/08/28 08:27:54;;;;;;;6.25;3.38;;;;;;;23.46;49.89;102710.72;5109825;28;20059;-76
2021/08/28 08:30:19;;;;;;;7.20;3.80;;;;;;;23.44;49.68;102710.06;5095287;28;20517;-77
2021/08/28 08:32:45;;;;;;;6.38;3.33;;;;;;;23.45;49.74;102703.69;5110073;28;20433;-73
2021/08/28 08:35:10;;;;;;;5.28;3.00;;;;;;;23.46;49.51;102713.41;5095498;28;20115;-77
2021/08/28 08:37:36;;;;;;;7.68;3.50;;;;;;;23.45;49.67;102715.25;5065968;28;20052;-77
2021/08/28 08:40:02;;;;;;;7.13;3.10;;;;;;;23.47;49.86;102707.88;5088608;28;20100;-77
2021/08/28 08:42:28;;;;;;;7.00;3.30;;;;;;;23.48;49.93;102716.75;5071308;28;20476;-75
2021/08/28 08:44:55;;;;;;;5.00;3.30;;;;;;;23.47;50.03;102707.03;5089330;28;20039;-77
2021/08/28 08:47:21;;;;;;;6.55;3.65;;;;;;;23.48;50.04;102708.69;5089936;28;20149;-77
2021/08/28 08:49:48;;;;;;;5.72;2.90;;;;;;;23.48;49.98;102712.22;5089451;28;20173;-77
2021/08/28 08:52:17;;;;;;;5.53;3.90;;;;;;;23.49;50.18;102713.88;5090069;28;20111;-77
2021/08/28 08:54:43;;;;;;;5.18;3.30;;;;;;;23.49;50.43;102710.38;5095373;28;20028;-76
2021/08/28 08:57:09;;;;;;;6.22;3.03;;;;;;;23.50;50.39;102714.72;5110339;28;20053;-76
2021/08/28 08:59:35;;;;;;;5.95;2.88;;;;;;;23.51;50.50;102713.69;5094488;28;20035;-77
2021/08/28 09:02:02;;;;;;;5.50;3.10;;;;;;;23.51;50.50;102719.06;5089666;28;20440;-77
2021/08/28 09:04:27;;;;;;;4.10;3.13;;;;;;;23.51;50.44;102719.06;5088862;28;20046;-76
2021/08/28 09:06:53;;;;;;;7.13;2.78;;;;;;;23.51;50.60;102719.91;5095486;28;20036;-72
2021/08/28 09:09:18;;;;;;;8.23;3.15;;;;;;;23.52;50.70;102718.06;5095726;28;20047;-75
2021/08/28 09:12:12;;;;;;;8.63;3.35;;;;;;;23.47;50.88;102715.06;5083249;28;20036;-73
2021/08/28 09:14:37;;;;;;;5.93;2.67;;;;;;;23.51;51.16;102717.25;5097834;28;20094;-74
2021/08/28 09:17:18;;;;;;;4.70;2.83;;;;;;;23.50;51.17;102720.06;5101465;28;20138;-78
2021/08/28 09:19:45;;;;;;;6.25;3.05;;;;;;;23.53;51.28;102719.75;5102714;28;20063;-76
2021/08/28 09:22:31;;;;;;;4.68;2.95;;;;;;;23.50;51.15;102718.22;5104577;28;20059;-79
2021/08/28 09:25:05;;;;;;;8.25;3.28;;;;;;;23.52;51.44;102713.56;5101067;28;20134;-78
2021/08/28 09:27:41;;;;;;;6.47;3.58;;;;;;;23.53;51.14;102717.91;5104533;28;20028;-79
2021/08/28 09:30:33;;;;;;;7.45;3.47;;;;;;;23.51;51.68;102717.25;5105166;28;20470;-78
2021/08/28 09:33:04;;;;;;;11.23;3.50;;;;;;;23.55;51.61;102721.22;5098293;28;20494;-79
2021/08/28 09:35:47;;;;;;;7.43;3.40;;;;;;;23.56;51.60;102722.06;5094972;28;20546;-77
2021/08/28 09:38:16;;;;;;;8.27;3.67;;;;;;;23.58;51.45;102720.06;5085107;28;20051;-77
2021/08/28 09:40:44;;;;;;;10.45;3.90;;;;;;;23.58;51.66;102723.56;5101561;28;20039;-77
2021/08/28 09:43:18;;;;;;;11.23;4.68;;;;;;;23.58;51.82;102720.06;5093392;28;20023;-80
2021/08/28 09:45:46;;;;;;;13.07;5.20;;;;;;;23.60;51.75;102718.88;5099969;28;20308;-78
2021/08/28 09:48:13;;;;;;;13.90;5.20;;;;;;;23.61;52.06;102714.34;5096904;28;20042;-78
2021/08/28 09:50:46;;;;;;;11.68;5.47;;;;;;;23.61;52.12;102722.38;5100902;28;20039;-76
2021/08/28 09:53:23;;;;;;;16.45;5.82;;;;;;;23.62;51.82;102718.69;5084568;28;20390;-76
2021/08/28 09:55:59;;;;;;;14.18;5.15;;;;;;;23.62;52.01;102718.69;5089327;28;20051;-74
2021/08/28 09:58:26;;;;;;;18.33;7.07;;;;;;;23.64;51.90;102721.19;5093549;28;20036;-74
2021/08/28 10:00:52;;;;;;;11.65;5.03;;;;;;;23.64;52.15;102719.34;5076528;28;20155;-76
2021/08/28 10:03:20;;;;;;;13.02;5.22;;;;;;;23.64;52.06;102722.03;5097940;28;20040;-75
2021/08/28 10:05:46;;;;;;;13.55;5.00;;;;;;;23.65;52.01;102712.97;5100876;28;20035;-76
2021/08/28 10:08:12;;;;;;;19.95;5.70;;;;;;;23.66;52.11;102719.16;5098803;28;20435;-73
2021/08/28 10:10:39;;;;;;;15.32;6.47;;;;;;;23.67;52.24;102719.00;5105499;28;20040;-73
2021/08/28 10:13:07;;;;;;;14.85;6.70;;;;;;;23.69;52.52;102718.84;5099155;28;20039;-76
2021/08/28 10:15:34;;;;;;;17.27;6.57;;;;;;;23.70;52.57;102721.34;5080282;28;20383;-79
2021/08/28 10:18:02;;;;;;;21.73;6.95;;;;;;;23.70;52.67;102718.66;5094298;28;20039;-75
2021/08/28 10:20:29;;;;;;;20.15;6.40;;;;;;;23.71;53.00;102717.63;5095335;28;20132;-73
2021/08/28 10:22:57;;;;;;;17.48;6.95;;;;;;;23.73;52.99;102722.81;5088069;28;20536;-74
2021/08/28 10:25:27;;;;;;;19.92;7.63;;;;;;;23.74;53.30;102724.47;5098592;28;20035;-77
2021/08/28 10:27:54;;;;;;;15.88;6.88;;;;;;;23.74;53.33;102717.28;5087860;28;20041;-74
2021/08/28 10:30:23;;;;;;;16.25;7.28;;;;;;;23.76;53.69;102725.13;5087265;28;20089;-70
2021/08/28 10:32:50;;;;;;;20.25;7.13;;;;;;;23.77;53.83;102719.59;5095497;28;20032;-70
2021/08/28 10:35:17;;;;;;;20.67;8.13;;;;;;;23.78;53.67;102720.44;5089414;28;20489;-74
2021/08/28 10:37:43;;;;;;;28.75;11.70;;;;;;;23.79;53.81;102719.41;5098965;28;20089;-76
2021/08/28 10:40:23;;;;;;;17.98;7.43;;;;;;;23.78;53.92;102721.25;5096049;28;20031;-73
2021/08/28 10:42:52;;;;;;;25.17;9.55;;;;;;;23.80;53.93;102726.44;5088874;28;20039;-75
2021/08/28 10:45:28;;;;;;;19.92;8.52;;;;;;;23.78;54.21;102713.22;5076376;28;20057;-76
2021/08/28 10:48:02;;;;;;;20.83;7.78;;;;;;;23.79;53.95;102716.72;5107389;28;20040;-77
2021/08/28 10:50:33;;;;;;;18.17;7.70;;;;;;;23.79;53.95;102719.41;5108008;28;20070;-76
2021/08/28 10:53:00;;;;;;;22.20;8.32;;;;;;;23.81;53.76;102720.06;5090826;28;20458;-80
2021/08/28 10:55:36;;;;;;;21.65;7.75;;;;;;;23.77;54.04;102714.22;5092482;28;20123;-76
2021/08/28 10:58:20;;;;;;;18.67;7.15;;;;;;;23.78;54.27;102717.75;5109902;28;20038;-77
2021/08/28 11:00:51;;;;;;;19.33;8.13;;;;;;;23.79;54.38;102725.59;5104970;28;20111;-79
2021/08/28 11:03:26;;;;;;;17.42;6.43;;;;;;;23.77;54.26;102716.06;5088970;28;20482;-77
2021/08/28 11:06:16;;;;;;;17.17;7.05;;;;;;;23.75;54.30;102723.47;5108971;28;20486;-75
2021/08/28 11:08:47;;;;;;;13.57;6.40;;;;;;;23.77;54.09;102724.94;5058139;28;20463;-78
2021/08/28 11:11:19;;;;;;;15.00;6.55;;;;;;;23.76;54.05;102725.97;5099335;28;20032;-80
2021/08/28 11:14:00;;;;;;;26.13;6.65;;;;;;;23.74;54.28;102727.16;5074589;28;20396;-79
2021/08/28 11:16:42;;;;;;;14.35;5.85;;;;;;;23.72;54.39;102727.34;5084023;28;20035;-79
2021/08/28 11:19:11;;;;;;;14.45;5.75;;;;;;;23.76;54.40;102725.13;5072391;28;20043;-72
2021/08/28 11:21:48;;;;;;;13.88;6.03;;;;;;;23.73;54.12;102729.00;5096494;28;20136;-74
2021/08/28 11:24:25;;;;;;;14.65;6.05;;;;;;;23.74;54.37;102727.16;5086487;28;20048;-74
2021/08/28 11:26:53;;;;;;;11.20;5.25;;;;;;;23.75;54.46;102729.66;5098097;28;20031;-73